sensor_id;sensor_type;location;lat;lon;timestamp;pressure;altitude;pressure_sealevel;temperature;humidity
46303;BME280;32029;51.358;5.628;2023-05-03T00:00:08;102618.41;;;8.89;62.60
46303;BME280;32029;51.358;5.628;2023-05-03T00:02:37;102612.00;;;8.78;63.00
46303;BME280;32029;51.358;5.628;2023-05-03T00:05:06;102617.72;;;8.75;63.11
46303;BME280;32029;51.358;5.628;2023-05-03T00:07:38;102612.25;;;8.75;63.20
46303;BME280;32029;51.358;5.628;2023-05-03T00:10:07;102536.34;;;8.24;63.28
46303;BME280;32029;51.358;5.628;2023-05-03T00:12:37;102610.31;;;8.66;63.55
46303;BME280;32029;51.358;5.628;2023-05-03T00:15:05;102612.44;;;8.63;63.67
46303;BME280;32029;51.358;5.628;2023-05-03T00:17:32;102610.22;;;8.56;63.59
46303;BME280;32029;51.358;5.628;2023-05-03T00:19:59;102601.66;;;8.50;63.75
46303;BME280;32029;51.358;5.628;2023-05-03T00:22:25;102607.03;;;8.51;64.15
46303;BME280;32029;51.358;5.628;2023-05-03T00:24:52;102603.69;;;8.48;64.43
46303;BME280;32029;51.358;5.628;2023-05-03T00:27:19;102607.69;;;8.44;64.57
46303;BME280;32029;51.358;5.628;2023-05-03T00:29:46;102602.47;;;8.41;64.34
46303;BME280;32029;51.358;5.628;2023-05-03T00:32:12;102571.94;;;8.13;64.67
46303;BME280;32029;51.358;5.628;2023-05-03T00:34:39;102608.69;;;8.31;64.54
46303;BME280;32029;51.358;5.628;2023-05-03T00:37:06;102610.66;;;8.29;65.05
46303;BME280;32029;51.358;5.628;2023-05-03T00:39:32;102588.19;;;8.15;65.10
46303;BME280;32029;51.358;5.628;2023-05-03T00:42:00;102613.19;;;8.21;65.42
46303;BME280;32029;51.358;5.628;2023-05-03T00:44:27;102603.03;;;8.12;65.20
46303;BME280;32029;51.358;5.628;2023-05-03T00:46:55;102609.22;;;8.14;65.65
46303;BME280;32029;51.358;5.628;2023-05-03T00:49:24;102610.47;;;8.10;65.65
46303;BME280;32029;51.358;5.628;2023-05-03T00:51:54;102584.41;;;7.95;66.12
46303;BME280;32029;51.358;5.628;2023-05-03T00:54:21;102592.13;;;7.90;66.12
46303;BME280;32029;51.358;5.628;2023-05-03T00:56:48;102608.50;;;8.01;65.83
46303;BME280;32029;51.358;5.628;2023-05-03T00:59:15;102585.44;;;7.82;66.40
46303;BME280;32029;51.358;5.628;2023-05-03T01:01:41;102614.38;;;7.96;66.50
46303;BME280;32029;51.358;5.628;2023-05-03T01:04:08;102590.28;;;7.79;66.30
46303;BME280;32029;51.358;5.628;2023-05-03T01:06:44;102589.66;;;7.75;66.48
46303;BME280;32029;51.358;5.628;2023-05-03T01:09:31;102606.28;;;7.83;66.93
46303;BME280;32029;51.358;5.628;2023-05-03T01:14:48;102604.94;;;7.78;67.28
46303;BME280;32029;51.358;5.628;2023-05-03T01:17:23;102574.78;;;7.57;67.37
46303;BME280;32029;51.358;5.628;2023-05-03T01:20:02;102593.16;;;7.66;67.33
46303;BME280;32029;51.358;5.628;2023-05-03T01:22:42;102600.25;;;7.69;67.50
46303;BME280;32029;51.358;5.628;2023-05-03T01:25:13;102601.72;;;7.61;67.28
46303;BME280;32029;51.358;5.628;2023-05-03T01:27:41;102605.31;;;7.62;67.57
46303;BME280;32029;51.358;5.628;2023-05-03T01:30:10;102601.84;;;7.60;67.89
46303;BME280;32029;51.358;5.628;2023-05-03T01:32:59;102613.03;;;7.57;67.83
46303;BME280;32029;51.358;5.628;2023-05-03T01:35:35;102604.31;;;7.52;67.99
46303;BME280;32029;51.358;5.628;2023-05-03T01:38:03;102540.28;;;7.11;68.04
46303;BME280;32029;51.358;5.628;2023-05-03T01:40:34;102614.75;;;7.47;68.25
46303;BME280;32029;51.358;5.628;2023-05-03T01:43:02;102612.28;;;7.44;68.23
46303;BME280;32029;51.358;5.628;2023-05-03T01:45:29;102597.97;;;7.29;68.48
46303;BME280;32029;51.358;5.628;2023-05-03T01:47:56;102618.88;;;7.41;68.38
46303;BME280;32029;51.358;5.628;2023-05-03T01:50:23;102624.44;;;7.40;68.49
46303;BME280;32029;51.358;5.628;2023-05-03T01:52:49;102624.56;;;7.38;69.23
46303;BME280;32029;51.358;5.628;2023-05-03T01:55:17;102618.72;;;7.31;69.03
46303;BME280;32029;51.358;5.628;2023-05-03T01:57:44;102595.00;;;7.21;69.00
46303;BME280;32029;51.358;5.628;2023-05-03T02:00:11;102624.94;;;7.33;69.11
46303;BME280;32029;51.358;5.628;2023-05-03T02:02:38;102626.91;;;7.31;69.05
46303;BME280;32029;51.358;5.628;2023-05-03T02:05:06;102632.13;;;7.23;69.66
46303;BME280;32029;51.358;5.628;2023-05-03T02:07:33;102638.06;;;7.28;69.30
46303;BME280;32029;51.358;5.628;2023-05-03T02:10:00;102599.06;;;7.04;68.92
46303;BME280;32029;51.358;5.628;2023-05-03T02:12:26;102638.59;;;7.22;69.20
46303;BME280;32029;51.358;5.628;2023-05-03T02:14:53;102619.44;;;7.11;69.58
46303;BME280;32029;51.358;5.628;2023-05-03T02:17:20;102626.25;;;7.17;69.37
46303;BME280;32029;51.358;5.628;2023-05-03T02:19:47;102619.81;;;7.06;69.34
46303;BME280;32029;51.358;5.628;2023-05-03T02:22:14;102621.66;;;7.06;69.20
46303;BME280;32029;51.358;5.628;2023-05-03T02:24:40;102606.25;;;6.94;69.53
46303;BME280;32029;51.358;5.628;2023-05-03T02:27:08;102629.09;;;7.04;69.52
46303;BME280;32029;51.358;5.628;2023-05-03T02:29:35;102618.91;;;6.95;69.84
46303;BME280;32029;51.358;5.628;2023-05-03T02:32:02;102616.69;;;7.00;69.81
46303;BME280;32029;51.358;5.628;2023-05-03T02:34:31;102622.63;;;6.94;69.46
46303;BME280;32029;51.358;5.628;2023-05-03T02:36:58;102623.59;;;6.93;69.57
46303;BME280;32029;51.358;5.628;2023-05-03T02:39:25;102615.78;;;6.88;69.63
46303;BME280;32029;51.358;5.628;2023-05-03T02:41:52;102613.44;;;6.83;69.42
46303;BME280;32029;51.358;5.628;2023-05-03T02:44:18;102572.41;;;6.61;69.50
46303;BME280;32029;51.358;5.628;2023-05-03T02:46:45;102562.25;;;6.52;69.91
46303;BME280;32029;51.358;5.628;2023-05-03T02:49:12;102595.03;;;6.74;69.62
46303;BME280;32029;51.358;5.628;2023-05-03T02:51:38;102585.59;;;6.67;69.58
46303;BME280;32029;51.358;5.628;2023-05-03T02:54:05;102587.34;;;6.68;69.88
46303;BME280;32029;51.358;5.628;2023-05-03T02:56:32;102582.09;;;6.65;69.68
46303;BME280;32029;51.358;5.628;2023-05-03T02:58:58;102560.38;;;6.52;69.64
46303;BME280;32029;51.358;5.628;2023-05-03T03:01:25;102538.00;;;6.36;70.05
46303;BME280;32029;51.358;5.628;2023-05-03T03:03:52;102469.09;;;5.99;70.12
46303;BME280;32029;51.358;5.628;2023-05-03T03:06:19;102545.59;;;6.44;70.22
46303;BME280;32029;51.358;5.628;2023-05-03T03:08:46;102554.06;;;6.52;70.35
46303;BME280;32029;51.358;5.628;2023-05-03T03:11:13;102557.00;;;6.49;70.20
46303;BME280;32029;51.358;5.628;2023-05-03T03:13:39;102528.94;;;6.35;70.12
46303;BME280;32029;51.358;5.628;2023-05-03T03:16:07;102547.56;;;6.42;70.38
46303;BME280;32029;51.358;5.628;2023-05-03T03:18:36;102550.53;;;6.38;70.13
46303;BME280;32029;51.358;5.628;2023-05-03T03:21:03;102524.91;;;6.17;70.30
46303;BME280;32029;51.358;5.628;2023-05-03T03:23:29;102573.69;;;6.33;70.47
46303;BME280;32029;51.358;5.628;2023-05-03T03:25:56;102575.66;;;6.31;70.43
46303;BME280;32029;51.358;5.628;2023-05-03T03:28:23;102569.69;;;6.26;70.50
46303;BME280;32029;51.358;5.628;2023-05-03T03:30:49;102568.81;;;6.25;70.53
46303;BME280;32029;51.358;5.628;2023-05-03T03:33:16;102568.06;;;6.23;70.48
46303;BME280;32029;51.358;5.628;2023-05-03T03:35:43;102557.72;;;6.16;71.09
46303;BME280;32029;51.358;5.628;2023-05-03T03:38:09;102573.84;;;6.19;71.04
46303;BME280;32029;51.358;5.628;2023-05-03T03:40:36;102569.34;;;6.06;71.39
46303;BME280;32029;51.358;5.628;2023-05-03T03:43:03;102552.78;;;5.97;71.39
46303;BME280;32029;51.358;5.628;2023-05-03T03:45:29;102577.81;;;6.14;71.76
46303;BME280;32029;51.358;5.628;2023-05-03T03:47:56;102582.38;;;6.14;71.44
46303;BME280;32029;51.358;5.628;2023-05-03T03:50:24;102578.91;;;6.12;71.94
46303;BME280;32029;51.358;5.628;2023-05-03T03:52:51;102574.78;;;6.06;71.89
46303;BME280;32029;51.358;5.628;2023-05-03T03:55:17;102577.28;;;6.09;71.87
46303;BME280;32029;51.358;5.628;2023-05-03T03:57:44;102581.97;;;6.07;72.34
46303;BME280;32029;51.358;5.628;2023-05-03T04:00:11;102583.84;;;6.07;72.08
46303;BME280;32029;51.358;5.628;2023-05-03T04:02:38;102533.88;;;5.82;72.26
46303;BME280;32029;51.358;5.628;2023-05-03T04:05:05;102580.38;;;6.05;72.42
46303;BME280;32029;51.358;5.628;2023-05-03T04:07:32;102577.22;;;5.98;72.44
46303;BME280;32029;51.358;5.628;2023-05-03T04:09:58;102583.31;;;6.02;72.57
46303;BME280;32029;51.358;5.628;2023-05-03T04:12:28;102585.19;;;6.01;72.65
46303;BME280;32029;51.358;5.628;2023-05-03T04:14:55;102576.34;;;5.98;72.91
46303;BME280;32029;51.358;5.628;2023-05-03T04:17:22;102589.75;;;6.01;73.29
46303;BME280;32029;51.358;5.628;2023-05-03T04:19:50;102594.31;;;6.00;73.27
46303;BME280;32029;51.358;5.628;2023-05-03T04:22:17;102581.16;;;5.94;73.56
46303;BME280;32029;51.358;5.628;2023-05-03T04:24:44;102594.44;;;5.99;73.64
46303;BME280;32029;51.358;5.628;2023-05-03T04:27:11;102585.75;;;5.94;73.68
46303;BME280;32029;51.358;5.628;2023-05-03T04:29:40;102599.75;;;6.00;73.94
46303;BME280;32029;51.358;5.628;2023-05-03T04:32:06;102590.94;;;5.97;74.36
46303;BME280;32029;51.358;5.628;2023-05-03T04:34:33;102595.53;;;5.96;74.53
46303;BME280;32029;51.358;5.628;2023-05-03T04:36:59;102592.94;;;5.95;74.30
46303;BME280;32029;51.358;5.628;2023-05-03T04:39:26;102603.38;;;6.01;74.91
46303;BME280;32029;51.358;5.628;2023-05-03T04:41:52;102611.31;;;6.04;75.00
46303;BME280;32029;51.358;5.628;2023-05-03T04:44:19;102605.75;;;6.05;75.34
46303;BME280;32029;51.358;5.628;2023-05-03T04:46:46;102552.66;;;5.74;75.71
46303;BME280;32029;51.358;5.628;2023-05-03T04:49:13;102603.91;;;6.06;75.71
46303;BME280;32029;51.358;5.628;2023-05-03T04:51:40;102587.25;;;5.98;75.61
46303;BME280;32029;51.358;5.628;2023-05-03T04:54:06;102616.81;;;6.15;75.73
46303;BME280;32029;51.358;5.628;2023-05-03T04:56:33;102604.91;;;6.05;75.92
46303;BME280;32029;51.358;5.628;2023-05-03T04:59:01;102628.25;;;6.20;76.40
46303;BME280;32029;51.358;5.628;2023-05-03T05:01:27;102629.78;;;6.24;76.70
46303;BME280;32029;51.358;5.628;2023-05-03T05:03:55;102610.88;;;6.10;76.82
46303;BME280;32029;51.358;5.628;2023-05-03T05:06:21;102646.44;;;6.32;76.84
46303;BME280;32029;51.358;5.628;2023-05-03T05:08:49;102648.81;;;6.37;76.84
46303;BME280;32029;51.358;5.628;2023-05-03T05:11:16;102643.59;;;6.34;77.23
46303;BME280;32029;51.358;5.628;2023-05-03T05:13:42;102640.22;;;6.30;77.13
46303;BME280;32029;51.358;5.628;2023-05-03T05:16:09;102650.97;;;6.45;77.60
46303;BME280;32029;51.358;5.628;2023-05-03T05:18:36;102667.25;;;6.57;78.03
46303;BME280;32029;51.358;5.628;2023-05-03T05:21:04;102671.25;;;6.65;77.91
46303;BME280;32029;51.358;5.628;2023-05-03T05:23:31;102651.53;;;6.61;78.05
46303;BME280;32029;51.358;5.628;2023-05-03T05:25:59;102672.19;;;6.76;78.30
46303;BME280;32029;51.358;5.628;2023-05-03T05:28:27;102669.22;;;6.79;78.19
46303;BME280;32029;51.358;5.628;2023-05-03T05:30:53;102673.72;;;6.92;78.36
46303;BME280;32029;51.358;5.628;2023-05-03T05:33:20;102655.63;;;6.91;78.01
46303;BME280;32029;51.358;5.628;2023-05-03T05:35:48;102669.81;;;7.07;78.24
46303;BME280;32029;51.358;5.628;2023-05-03T05:38:15;102672.81;;;7.15;78.06
46303;BME280;32029;51.358;5.628;2023-05-03T05:40:43;102664.88;;;7.23;77.96
46303;BME280;32029;51.358;5.628;2023-05-03T05:43:09;102659.69;;;7.31;78.09
46303;BME280;32029;51.358;5.628;2023-05-03T05:45:37;102660.94;;;7.39;77.72
46303;BME280;32029;51.358;5.628;2023-05-03T05:48:03;102638.59;;;7.33;77.67
46303;BME280;32029;51.358;5.628;2023-05-03T05:50:30;102669.66;;;7.55;77.33
46303;BME280;32029;51.358;5.628;2023-05-03T05:52:57;102627.78;;;7.43;77.13
46303;BME280;32029;51.358;5.628;2023-05-03T05:55:24;102655.47;;;7.72;76.83
46303;BME280;32029;51.358;5.628;2023-05-03T05:57:51;102652.50;;;7.75;76.72
46303;BME280;32029;51.358;5.628;2023-05-03T06:00:18;102658.59;;;7.90;76.64
46303;BME280;32029;51.358;5.628;2023-05-03T06:02:44;102645.53;;;7.94;76.44
46303;BME280;32029;51.358;5.628;2023-05-03T06:05:11;102634.38;;;7.97;76.31
46303;BME280;32029;51.358;5.628;2023-05-03T06:07:38;102633.97;;;8.01;75.47
46303;BME280;32029;51.358;5.628;2023-05-03T06:10:05;102664.63;;;8.27;75.58
46303;BME280;32029;51.358;5.628;2023-05-03T06:12:32;102670.22;;;8.37;75.17
46303;BME280;32029;51.358;5.628;2023-05-03T06:14:59;102653.44;;;8.42;74.90
46303;BME280;32029;51.358;5.628;2023-05-03T06:17:25;102645.72;;;8.47;74.97
46303;BME280;32029;51.358;5.628;2023-05-03T06:19:52;102622.34;;;8.43;74.58
46303;BME280;32029;51.358;5.628;2023-05-03T06:22:18;102658.03;;;8.73;73.87
46303;BME280;32029;51.358;5.628;2023-05-03T06:24:45;102663.72;;;8.81;73.61
46303;BME280;32029;51.358;5.628;2023-05-03T06:27:12;102665.69;;;8.91;73.10
46303;BME280;32029;51.358;5.628;2023-05-03T06:29:39;102637.19;;;8.93;72.92
46303;BME280;32029;51.358;5.628;2023-05-03T06:32:05;102646.47;;;9.02;72.55
46303;BME280;32029;51.358;5.628;2023-05-03T06:34:32;102626.56;;;9.00;72.48
46303;BME280;32029;51.358;5.628;2023-05-03T06:36:59;102649.19;;;9.23;72.23
46303;BME280;32029;51.358;5.628;2023-05-03T06:39:26;102628.16;;;9.23;72.49
46303;BME280;32029;51.358;5.628;2023-05-03T06:41:53;102652.50;;;9.47;71.19
46303;BME280;32029;51.358;5.628;2023-05-03T06:44:20;102640.41;;;9.50;70.74
46303;BME280;32029;51.358;5.628;2023-05-03T06:46:47;102640.75;;;9.56;71.07
46303;BME280;32029;51.358;5.628;2023-05-03T06:49:13;102652.22;;;9.71;70.44
46303;BME280;32029;51.358;5.628;2023-05-03T06:51:40;102657.88;;;9.79;70.08
46303;BME280;32029;51.358;5.628;2023-05-03T06:54:07;102653.56;;;9.87;70.00
46303;BME280;32029;51.358;5.628;2023-05-03T06:56:35;102624.41;;;9.86;69.98
46303;BME280;32029;51.358;5.628;2023-05-03T06:59:02;102610.84;;;9.84;69.87
46303;BME280;32029;51.358;5.628;2023-05-03T07:01:30;102631.69;;;10.06;69.58
46303;BME280;32029;51.358;5.628;2023-05-03T07:03:57;102635.75;;;10.21;69.37
46303;BME280;32029;51.358;5.628;2023-05-03T07:06:23;102635.81;;;10.31;68.81
46303;BME280;32029;51.358;5.628;2023-05-03T07:08:51;102628.63;;;10.40;68.38
46303;BME280;32029;51.358;5.628;2023-05-03T07:11:20;102633.22;;;10.49;68.42
46303;BME280;32029;51.358;5.628;2023-05-03T07:13:53;102616.47;;;10.52;67.58
46303;BME280;32029;51.358;5.628;2023-05-03T07:16:20;102609.00;;;10.54;67.53
46303;BME280;32029;51.358;5.628;2023-05-03T07:18:48;102625.47;;;10.73;66.91
46303;BME280;32029;51.358;5.628;2023-05-03T07:21:15;102602.06;;;10.69;67.30
46303;BME280;32029;51.358;5.628;2023-05-03T07:23:42;102632.97;;;10.91;66.30
46303;BME280;32029;51.358;5.628;2023-05-03T07:26:09;102620.53;;;10.87;65.92
46303;BME280;32029;51.358;5.628;2023-05-03T07:28:36;102632.53;;;11.05;66.11
46303;BME280;32029;51.358;5.628;2023-05-03T07:31:03;102586.25;;;10.91;65.17
46303;BME280;32029;51.358;5.628;2023-05-03T07:33:33;102614.44;;;11.12;64.92
46303;BME280;32029;51.358;5.628;2023-05-03T07:35:59;102611.81;;;11.20;63.77
46303;BME280;32029;51.358;5.628;2023-05-03T07:38:26;102625.06;;;11.35;64.14
46303;BME280;32029;51.358;5.628;2023-05-03T07:40:53;102626.19;;;11.42;63.45
46303;BME280;32029;51.358;5.628;2023-05-03T07:43:19;102583.72;;;11.26;63.73
46303;BME280;32029;51.358;5.628;2023-05-03T07:45:48;102624.72;;;11.57;63.69
46303;BME280;32029;51.358;5.628;2023-05-03T07:48:15;102624.53;;;11.68;63.38
46303;BME280;32029;51.358;5.628;2023-05-03T07:50:43;102613.94;;;11.73;62.13
46303;BME280;32029;51.358;5.628;2023-05-03T07:53:10;102628.38;;;11.85;61.74
46303;BME280;32029;51.358;5.628;2023-05-03T07:55:37;102611.13;;;11.93;61.46
46303;BME280;32029;51.358;5.628;2023-05-03T07:58:04;102613.97;;;12.01;61.60
46303;BME280;32029;51.358;5.628;2023-05-03T08:00:31;102598.78;;;11.97;61.52
46303;BME280;32029;51.358;5.628;2023-05-03T08:02:57;102606.53;;;12.11;61.20
46303;BME280;32029;51.358;5.628;2023-05-03T08:05:27;102587.44;;;12.10;59.75
46303;BME280;32029;51.358;5.628;2023-05-03T08:07:53;102589.41;;;12.17;58.82
46303;BME280;32029;51.358;5.628;2023-05-03T08:10:20;102606.09;;;12.34;59.50
46303;BME280;32029;51.358;5.628;2023-05-03T08:12:47;102594.44;;;12.40;59.51
46303;BME280;32029;51.358;5.628;2023-05-03T08:15:14;102585.31;;;12.39;58.78
46303;BME280;32029;51.358;5.628;2023-05-03T08:17:42;102591.16;;;12.54;58.67
46303;BME280;32029;51.358;5.628;2023-05-03T08:20:12;102586.75;;;12.61;58.41
46303;BME280;32029;51.358;5.628;2023-05-03T08:22:39;102577.16;;;12.65;58.72
46303;BME280;32029;51.358;5.628;2023-05-03T08:25:06;102580.50;;;12.77;58.18
46303;BME280;32029;51.358;5.628;2023-05-03T08:27:33;102576.09;;;12.84;58.31
46303;BME280;32029;51.358;5.628;2023-05-03T08:30:00;102576.09;;;12.84;57.78
46303;BME280;32029;51.358;5.628;2023-05-03T08:32:27;102575.19;;;13.02;57.56
46303;BME280;32029;51.358;5.628;2023-05-03T08:34:54;102569.53;;;13.03;57.12
46303;BME280;32029;51.358;5.628;2023-05-03T08:37:22;102586.19;;;13.19;56.21
46303;BME280;32029;51.358;5.628;2023-05-03T08:39:48;102587.44;;;13.25;55.02
46303;BME280;32029;51.358;5.628;2023-05-03T08:42:15;102580.44;;;13.31;54.62
46303;BME280;32029;51.358;5.628;2023-05-03T08:44:46;102584.59;;;13.35;54.28
46303;BME280;32029;51.358;5.628;2023-05-03T08:47:14;102576.69;;;13.40;54.51
46303;BME280;32029;51.358;5.628;2023-05-03T08:49:43;102493.88;;;12.97;54.41
46303;BME280;32029;51.358;5.628;2023-05-03T08:52:10;102550.69;;;13.42;53.82
46303;BME280;32029;51.358;5.628;2023-05-03T08:54:39;102571.56;;;13.53;53.37
46303;BME280;32029;51.358;5.628;2023-05-03T08:57:13;102559.69;;;13.53;54.38
46303;BME280;32029;51.358;5.628;2023-05-03T08:59:50;102569.56;;;13.63;53.68
46303;BME280;32029;51.358;5.628;2023-05-03T09:02:19;102537.47;;;13.54;53.85
46303;BME280;32029;51.358;5.628;2023-05-03T09:04:46;102538.03;;;13.66;53.53
46303;BME280;32029;51.358;5.628;2023-05-03T09:07:13;102541.34;;;13.78;53.62
46303;BME280;32029;51.358;5.628;2023-05-03T09:09:42;102558.09;;;13.92;53.10
46303;BME280;32029;51.358;5.628;2023-05-03T09:12:09;102558.84;;;14.03;53.02
46303;BME280;32029;51.358;5.628;2023-05-03T09:14:43;102548.31;;;13.98;51.98
46303;BME280;32029;51.358;5.628;2023-05-03T09:17:17;102550.88;;;14.00;52.52
46303;BME280;32029;51.358;5.628;2023-05-03T09:19:54;102570.44;;;14.14;51.82
46303;BME280;32029;51.358;5.628;2023-05-03T09:22:26;102569.91;;;14.11;51.20
46303;BME280;32029;51.358;5.628;2023-05-03T09:24:58;102570.09;;;14.17;50.71
46303;BME280;32029;51.358;5.628;2023-05-03T09:27:26;102577.19;;;14.20;50.46
46303;BME280;32029;51.358;5.628;2023-05-03T09:29:53;102551.44;;;14.11;50.58
46303;BME280;32029;51.358;5.628;2023-05-03T09:32:21;102561.84;;;14.26;51.22
46303;BME280;32029;51.358;5.628;2023-05-03T09:34:48;102567.34;;;14.26;51.70
46303;BME280;32029;51.358;5.628;2023-05-03T09:37:14;102556.13;;;14.35;50.84
46303;BME280;32029;51.358;5.628;2023-05-03T09:39:42;102542.00;;;14.30;51.16
46303;BME280;32029;51.358;5.628;2023-05-03T09:42:15;102555.13;;;14.44;50.55
46303;BME280;32029;51.358;5.628;2023-05-03T09:44:44;102534.03;;;14.35;50.93
46303;BME280;32029;51.358;5.628;2023-05-03T09:47:11;102535.09;;;14.42;50.97
46303;BME280;32029;51.358;5.628;2023-05-03T09:49:45;102553.13;;;14.63;50.48
46303;BME280;32029;51.358;5.628;2023-05-03T09:52:12;102560.53;;;14.70;50.65
46303;BME280;32029;51.358;5.628;2023-05-03T09:54:38;102553.63;;;14.75;49.90
46303;BME280;32029;51.358;5.628;2023-05-03T09:57:06;102516.16;;;14.56;50.17
46303;BME280;32029;51.358;5.628;2023-05-03T09:59:36;102548.44;;;14.80;49.49
46303;BME280;32029;51.358;5.628;2023-05-03T10:02:05;102543.44;;;14.83;50.06
46303;BME280;32029;51.358;5.628;2023-05-03T10:04:53;102543.56;;;14.90;50.87
46303;BME280;32029;51.358;5.628;2023-05-03T10:07:23;102542.88;;;14.96;49.88
46303;BME280;32029;51.358;5.628;2023-05-03T10:09:51;102528.75;;;14.91;49.92
46303;BME280;32029;51.358;5.628;2023-05-03T10:12:19;102535.28;;;15.06;50.13
46303;BME280;32029;51.358;5.628;2023-05-03T10:14:47;102513.50;;;15.03;48.95
46303;BME280;32029;51.358;5.628;2023-05-03T10:17:30;102534.03;;;15.17;50.10
46303;BME280;32029;51.358;5.628;2023-05-03T10:25:33;102528.28;;;15.35;50.86
46303;BME280;32029;51.358;5.628;2023-05-03T10:28:05;102519.09;;;15.42;49.95
46303;BME280;32029;51.358;5.628;2023-05-03T10:30:36;102521.50;;;15.46;50.67
46303;BME280;32029;51.358;5.628;2023-05-03T10:35:40;102484.53;;;15.38;48.84
46303;BME280;32029;51.358;5.628;2023-05-03T10:38:21;102508.81;;;15.59;49.11
46303;BME280;32029;51.358;5.628;2023-05-03T10:40:48;102518.66;;;15.70;48.77
46303;BME280;32029;51.358;5.628;2023-05-03T10:46:05;102512.63;;;15.66;48.55
46303;BME280;32029;51.358;5.628;2023-05-03T10:48:32;102525.03;;;15.79;49.53
46303;BME280;32029;51.358;5.628;2023-05-03T10:53:56;102536.19;;;15.93;48.11
46303;BME280;32029;51.358;5.628;2023-05-03T10:56:22;102509.41;;;15.86;47.31
46303;BME280;32029;51.358;5.628;2023-05-03T10:58:49;102506.66;;;15.86;47.66
46303;BME280;32029;51.358;5.628;2023-05-03T11:01:17;102491.66;;;15.80;47.27
46303;BME280;32029;51.358;5.628;2023-05-03T11:03:54;102513.34;;;16.00;47.21
46303;BME280;32029;51.358;5.628;2023-05-03T11:06:35;102520.22;;;16.04;45.77
46303;BME280;32029;51.358;5.628;2023-05-03T11:09:07;102512.78;;;16.04;45.41
46303;BME280;32029;51.358;5.628;2023-05-03T11:11:37;102495.81;;;15.99;46.10
46303;BME280;32029;51.358;5.628;2023-05-03T11:14:05;102507.19;;;16.12;46.57
46303;BME280;32029;51.358;5.628;2023-05-03T11:16:34;102514.72;;;16.27;46.46
46303;BME280;32029;51.358;5.628;2023-05-03T11:19:02;102501.81;;;16.34;46.39
46303;BME280;32029;51.358;5.628;2023-05-03T11:21:29;102481.78;;;16.32;46.21
46303;BME280;32029;51.358;5.628;2023-05-03T11:23:57;102501.88;;;16.49;45.59
46303;BME280;32029;51.358;5.628;2023-05-03T11:26:24;102474.44;;;16.39;46.85
46303;BME280;32029;51.358;5.628;2023-05-03T11:28:53;102486.03;;;16.57;46.58
46303;BME280;32029;51.358;5.628;2023-05-03T11:31:20;102499.94;;;16.72;46.55
46303;BME280;32029;51.358;5.628;2023-05-03T11:33:48;102483.09;;;16.82;45.39
46303;BME280;32029;51.358;5.628;2023-05-03T11:36:15;102466.69;;;16.72;46.12
46303;BME280;32029;51.358;5.628;2023-05-03T11:38:41;102491.22;;;16.98;45.90
46303;BME280;32029;51.358;5.628;2023-05-03T11:41:16;102497.34;;;17.08;45.68
46303;BME280;32029;51.358;5.628;2023-05-03T11:43:46;102489.13;;;17.15;45.44
46303;BME280;32029;51.358;5.628;2023-05-03T11:46:16;102487.53;;;17.21;45.83
46303;BME280;32029;51.358;5.628;2023-05-03T11:48:43;102482.25;;;17.26;45.34
46303;BME280;32029;51.358;5.628;2023-05-03T11:51:10;102459.09;;;17.19;45.58
46303;BME280;32029;51.358;5.628;2023-05-03T11:53:39;102452.13;;;17.23;45.23
46303;BME280;32029;51.358;5.628;2023-05-03T11:56:07;102461.00;;;17.33;45.37
46303;BME280;32029;51.358;5.628;2023-05-03T11:58:48;102475.06;;;17.46;44.83
46303;BME280;32029;51.358;5.628;2023-05-03T12:01:15;102474.47;;;17.51;44.32
46303;BME280;32029;51.358;5.628;2023-05-03T12:03:42;102467.69;;;17.53;44.51
46303;BME280;32029;51.358;5.628;2023-05-03T12:06:10;102436.03;;;17.48;44.24
46303;BME280;32029;51.358;5.628;2023-05-03T12:08:37;102462.81;;;17.55;44.86
46303;BME280;32029;51.358;5.628;2023-05-03T12:11:04;102427.50;;;17.49;45.60
46303;BME280;32029;51.358;5.628;2023-05-03T12:13:35;102445.56;;;17.60;43.94
46303;BME280;32029;51.358;5.628;2023-05-03T12:16:04;102453.88;;;17.75;43.29
46303;BME280;32029;51.358;5.628;2023-05-03T12:18:53;102451.78;;;17.77;43.98
46303;BME280;32029;51.358;5.628;2023-05-03T12:21:22;102410.22;;;17.69;43.71
46303;BME280;32029;51.358;5.628;2023-05-03T12:23:50;102426.00;;;17.83;43.30
46303;BME280;32029;51.358;5.628;2023-05-03T12:26:18;102424.09;;;17.83;43.37
46303;BME280;32029;51.358;5.628;2023-05-03T12:28:48;102427.59;;;17.92;43.35
46303;BME280;32029;51.358;5.628;2023-05-03T12:31:15;102419.91;;;17.94;43.53
46303;BME280;32029;51.358;5.628;2023-05-03T12:33:43;102409.16;;;17.84;43.07
46303;BME280;32029;51.358;5.628;2023-05-03T12:36:10;102405.59;;;17.91;42.66
46303;BME280;32029;51.358;5.628;2023-05-03T12:38:37;102415.72;;;17.98;42.63
46303;BME280;32029;51.358;5.628;2023-05-03T12:41:04;102393.81;;;17.88;43.42
46303;BME280;32029;51.358;5.628;2023-05-03T12:43:30;102406.78;;;18.03;43.44
46303;BME280;32029;51.358;5.628;2023-05-03T12:45:57;102403.41;;;18.07;43.29
46303;BME280;32029;51.358;5.628;2023-05-03T12:48:29;102401.47;;;18.08;43.34
46303;BME280;32029;51.358;5.628;2023-05-03T12:50:56;102392.78;;;18.18;43.55
46303;BME280;32029;51.358;5.628;2023-05-03T12:53:24;102392.00;;;18.24;42.72
46303;BME280;32029;51.358;5.628;2023-05-03T12:55:52;102375.09;;;18.19;42.76
46303;BME280;32029;51.358;5.628;2023-05-03T12:58:19;102368.06;;;18.23;42.10
46303;BME280;32029;51.358;5.628;2023-05-03T13:00:46;102391.53;;;18.42;41.65
46303;BME280;32029;51.358;5.628;2023-05-03T13:03:12;102351.47;;;18.29;41.45
46303;BME280;32029;51.358;5.628;2023-05-03T13:05:40;102356.03;;;18.44;41.91
46303;BME280;32029;51.358;5.628;2023-05-03T13:08:07;102367.84;;;18.52;41.63
46303;BME280;32029;51.358;5.628;2023-05-03T13:10:33;102343.00;;;18.44;42.54
46303;BME280;32029;51.358;5.628;2023-05-03T13:13:00;102359.81;;;18.64;41.80
46303;BME280;32029;51.358;5.628;2023-05-03T13:15:27;102345.31;;;18.69;41.95